createdAt,value
2022-09-27T00:02:03.402Z,3.90
2022-09-27T00:04:33.861Z,4.97
2022-09-27T00:07:03.325Z,4.73
2022-09-27T00:09:32.348Z,4.90
2022-09-27T00:12:01.737Z,4.43
2022-09-27T00:14:30.826Z,4.10
2022-09-27T00:16:59.780Z,4.07
2022-09-27T00:19:28.768Z,4.53
2022-09-27T00:21:59.091Z,3.95
2022-09-27T00:24:28.164Z,4.00
2022-09-27T00:26:57.109Z,3.75
2022-09-27T00:29:26.117Z,5.05
2022-09-27T00:31:55.629Z,5.18
2022-09-27T00:34:26.120Z,4.30
2022-09-27T00:36:55.600Z,4.20
2022-09-27T00:39:26.018Z,4.03
2022-09-27T00:41:55.031Z,4.57
2022-09-27T00:45:06.932Z,5.20
2022-09-27T00:47:41.777Z,4.32
2022-09-27T00:50:20.974Z,5.07
2022-09-27T00:52:57.335Z,4.38
2022-09-27T00:55:31.685Z,4.15
2022-09-27T00:58:01.702Z,5.07
2022-09-27T01:00:31.622Z,4.85
2022-09-27T01:03:02.231Z,5.45
2022-09-27T01:05:31.795Z,4.17
2022-09-27T01:08:01.212Z,5.28
2022-09-27T01:10:38.607Z,5.18
2022-09-27T01:13:16.776Z,4.65
2022-09-27T01:15:51.637Z,5.43
2022-09-27T01:18:32.132Z,5.25
2022-09-27T01:21:34.998Z,4.65
2022-09-27T01:24:26.630Z,4.93
2022-09-27T01:27:41.930Z,5.55
2022-09-27T01:30:27.942Z,4.13
2022-09-27T01:33:09.653Z,4.85
2022-09-27T01:35:51.113Z,4.35
2022-09-27T01:38:26.471Z,4.70
2022-09-27T01:41:03.608Z,5.05
2022-09-27T01:43:37.902Z,6.28
2022-09-27T01:46:12.419Z,4.63
2022-09-27T01:49:09.542Z,4.80
2022-09-27T01:51:42.904Z,4.57
2022-09-27T01:54:29.953Z,4.88
2022-09-27T01:57:24.135Z,4.45
2022-09-27T01:59:57.709Z,5.53
2022-09-27T02:02:53.858Z,4.72
2022-09-27T02:05:38.676Z,5.20
2022-09-27T02:08:28.164Z,4.78
2022-09-27T02:11:02.134Z,5.18
2022-09-27T02:13:39.459Z,5.32
2022-09-27T02:16:36.693Z,4.40
2022-09-27T02:19:12.555Z,4.53
2022-09-27T02:21:51.070Z,4.45
2022-09-27T02:24:25.742Z,4.97
2022-09-27T02:27:00.701Z,5.40
2022-09-27T02:29:35.502Z,5.38
2022-09-27T02:32:04.706Z,6.60
2022-09-27T02:34:38.653Z,6.25
2022-09-27T02:37:07.983Z,5.00
2022-09-27T02:39:37.165Z,5.63
2022-09-27T02:42:09.097Z,5.70
2022-09-27T02:44:40.901Z,4.90
2022-09-27T02:47:24.051Z,5.13
2022-09-27T02:50:06.155Z,4.88
2022-09-27T02:53:08.195Z,5.03
2022-09-27T02:55:50.787Z,4.90
2022-09-27T02:59:02.865Z,4.80
2022-09-27T03:02:14.266Z,4.53
2022-09-27T03:05:11.888Z,5.60
2022-09-27T03:07:41.009Z,4.97
2022-09-27T03:10:18.494Z,4.97
2022-09-27T03:12:47.920Z,5.35
2022-09-27T03:15:17.149Z,4.82
2022-09-27T03:18:04.643Z,5.60
2022-09-27T03:20:43.951Z,4.18
2022-09-27T03:23:23.196Z,4.63
2022-09-27T03:25:52.503Z,4.35
2022-09-27T03:28:21.672Z,5.20
2022-09-27T03:30:50.917Z,4.70
2022-09-27T03:33:42.789Z,4.45
2022-09-27T03:36:14.882Z,5.75
2022-09-27T03:38:43.828Z,3.80
2022-09-27T03:41:16.116Z,4.10
2022-09-27T03:43:45.490Z,4.63
2022-09-27T03:46:14.538Z,4.30
2022-09-27T03:48:43.721Z,4.88
2022-09-27T03:51:14.127Z,4.63
2022-09-27T03:53:43.959Z,4.53
2022-09-27T03:56:13.331Z,5.10
2022-09-27T03:58:42.400Z,5.47
2022-09-27T04:01:11.999Z,4.75
2022-09-27T04:03:45.748Z,4.75
2022-09-27T04:06:35.033Z,5.22
2022-09-27T04:09:05.062Z,4.35
2022-09-27T04:11:57.120Z,5.13
2022-09-27T04:14:26.136Z,4.65
2022-09-27T04:17:13.781Z,5.13
2022-09-27T04:20:03.381Z,5.03
2022-09-27T04:22:34.686Z,4.38
2022-09-27T04:25:03.713Z,5.13
2022-09-27T04:27:39.485Z,4.93
2022-09-27T04:30:10.140Z,4.50
2022-09-27T04:32:59.127Z,5.25
2022-09-27T04:36:04.128Z,4.60
2022-09-27T04:38:36.484Z,4.97
2022-09-27T04:41:05.704Z,4.63
2022-09-27T04:43:36.476Z,5.47
2022-09-27T04:46:06.460Z,5.22
2022-09-27T04:48:35.617Z,4.05
2022-09-27T04:51:05.806Z,4.45
2022-09-27T04:53:36.553Z,4.90
2022-09-27T04:56:07.387Z,5.07
2022-09-27T04:58:37.664Z,4.75
2022-09-27T05:01:09.411Z,5.32
2022-09-27T05:04:01.517Z,4.88
2022-09-27T05:06:31.749Z,4.68
2022-09-27T05:09:09.133Z,4.80
2022-09-27T05:11:50.926Z,4.68
2022-09-27T05:14:20.727Z,4.40
2022-09-27T05:17:07.861Z,4.15
2022-09-27T05:19:45.625Z,4.53
2022-09-27T05:22:20.203Z,4.45
2022-09-27T05:24:50.680Z,5.60
2022-09-27T05:29:50.849Z,4.55
2022-09-27T05:32:34.833Z,5.97
2022-09-27T05:35:24.194Z,4.22
2022-09-27T05:37:54.701Z,5.28
2022-09-27T05:40:42.478Z,4.80
2022-09-27T05:43:13.411Z,4.90
2022-09-27T05:45:43.196Z,4.80
2022-09-27T05:48:14.588Z,5.22
2022-09-27T05:50:54.484Z,4.93
2022-09-27T05:53:23.681Z,5.57
2022-09-27T05:55:54.215Z,5.45
2022-09-27T05:58:30.358Z,5.75
2022-09-27T06:01:15.448Z,5.30
2022-09-27T06:04:13.776Z,4.95
2022-09-27T06:06:42.773Z,5.32
2022-09-27T06:09:12.754Z,4.82
2022-09-27T06:11:45.558Z,5.80
2022-09-27T06:14:16.857Z,5.13
2022-09-27T06:17:08.970Z,5.90
2022-09-27T06:19:42.437Z,4.72
2022-09-27T06:22:13.678Z,5.22
2022-09-27T06:24:51.030Z,5.55
2022-09-27T06:27:26.428Z,5.15
2022-09-27T06:30:01.994Z,4.78
2022-09-27T06:32:59.003Z,4.93
2022-09-27T06:35:43.094Z,5.05
2022-09-27T06:38:14.257Z,5.18
2022-09-27T06:40:50.500Z,5.20
2022-09-27T06:43:49.774Z,5.32
2022-09-27T06:46:38.067Z,4.95
2022-09-27T06:49:13.568Z,4.45
2022-09-27T06:51:43.824Z,4.85
2022-09-27T06:54:13.624Z,5.07
2022-09-27T06:56:42.708Z,4.55
2022-09-27T06:59:30.294Z,4.82
2022-09-27T07:02:17.574Z,4.88
2022-09-27T07:05:06.391Z,6.63
2022-09-27T07:07:57.802Z,5.40
2022-09-27T07:10:28.919Z,4.85
2022-09-27T07:12:58.602Z,5.05
2022-09-27T07:15:29.396Z,4.90
2022-09-27T07:17:59.725Z,4.88
2022-09-27T07:20:31.443Z,5.07
2022-09-27T07:23:00.811Z,4.65
2022-09-27T07:25:29.853Z,4.47
2022-09-27T07:28:03.100Z,5.13
2022-09-27T07:30:34.235Z,4.53
2022-09-27T07:33:05.490Z,4.72
2022-09-27T07:35:35.189Z,4.35
2022-09-27T07:38:05.337Z,4.85
2022-09-27T07:40:34.381Z,5.13
2022-09-27T07:43:04.147Z,4.45
2022-09-27T07:45:34.803Z,5.03
2022-09-27T07:48:26.852Z,5.32
2022-09-27T07:51:01.536Z,4.65
2022-09-27T07:53:48.559Z,4.38
2022-09-27T07:56:46.446Z,5.80
2022-09-27T07:59:17.658Z,5.13
2022-09-27T08:01:48.346Z,5.00
2022-09-27T08:04:17.391Z,5.47
2022-09-27T08:06:46.390Z,4.25
2022-09-27T08:09:15.546Z,5.22
2022-09-27T08:11:46.169Z,4.80
2022-09-27T08:14:16.549Z,4.78
2022-09-27T08:16:49.894Z,5.95
2022-09-27T08:19:31.253Z,5.82
2022-09-27T08:22:05.935Z,5.55
2022-09-27T08:24:41.655Z,4.35
2022-09-27T08:27:29.181Z,4.60
2022-09-27T08:30:00.601Z,5.30
2022-09-27T08:32:32.821Z,4.45
2022-09-27T08:35:03.832Z,4.53
2022-09-27T08:37:32.825Z,4.70
2022-09-27T08:40:02.549Z,4.75
2022-09-27T08:42:47.579Z,4.57
2022-09-27T08:45:24.190Z,5.38
2022-09-27T08:47:59.320Z,5.55
2022-09-27T08:50:32.675Z,4.97
2022-09-27T08:53:08.850Z,5.13
2022-09-27T08:55:41.679Z,5.65
2022-09-27T08:58:24.681Z,4.32
2022-09-27T09:00:57.227Z,4.25
2022-09-27T09:03:33.822Z,4.53
2022-09-27T09:06:12.799Z,4.60
2022-09-27T09:08:54.256Z,5.18
2022-09-27T09:11:54.989Z,5.25
2022-09-27T09:15:00.270Z,5.55
2022-09-27T09:17:43.014Z,5.10
2022-09-27T09:20:45.596Z,5.35
2022-09-27T09:23:43.498Z,4.70
2022-09-27T09:26:20.198Z,6.20
2022-09-27T09:29:02.925Z,6.13
2022-09-27T09:31:42.062Z,6.57
2022-09-27T09:34:18.043Z,6.25
2022-09-27T09:36:54.168Z,5.32
2022-09-27T09:39:28.014Z,5.25
2022-09-27T09:42:11.609Z,5.45
2022-09-27T09:44:48.435Z,4.72
2022-09-27T09:47:29.612Z,5.13
2022-09-27T09:50:02.481Z,4.90
2022-09-27T09:52:40.844Z,4.78
2022-09-27T09:55:19.173Z,4.78
2022-09-27T09:58:00.725Z,5.10
2022-09-27T10:00:33.923Z,5.25
2022-09-27T10:03:05.030Z,5.60
2022-09-27T10:05:34.416Z,4.45
2022-09-27T10:08:12.596Z,4.60
2022-09-27T10:10:41.890Z,5.32
2022-09-27T10:13:36.312Z,4.80
2022-09-27T10:16:10.073Z,5.40
2022-09-27T10:18:44.114Z,5.78
2022-09-27T10:21:21.511Z,4.78
2022-09-27T10:24:12.306Z,4.75
2022-09-27T10:27:10.231Z,4.45
2022-09-27T10:29:41.343Z,5.10
2022-09-27T10:32:24.863Z,4.53
2022-09-27T10:35:23.953Z,4.85
2022-09-27T10:37:53.816Z,4.45
2022-09-27T10:43:01.709Z,4.32
2022-09-27T10:45:49.514Z,4.63
2022-09-27T10:48:23.678Z,4.07
2022-09-27T10:51:00.840Z,4.35
2022-09-27T10:53:51.878Z,4.10
2022-09-27T10:56:31.554Z,4.30
2022-09-27T10:59:02.773Z,4.40
2022-09-27T11:01:42.101Z,4.20
2022-09-27T11:04:38.385Z,4.25
2022-09-27T11:07:16.242Z,4.10
2022-09-27T11:09:52.837Z,4.85
2022-09-27T11:12:25.538Z,3.88
2022-09-27T11:14:59.102Z,4.30
2022-09-27T11:17:35.445Z,4.07
2022-09-27T11:20:16.631Z,4.07
2022-09-27T11:23:26.242Z,4.35
2022-09-27T11:26:18.954Z,4.85
2022-09-27T11:28:58.544Z,4.22
2022-09-27T11:32:02.545Z,4.40
2022-09-27T11:34:45.122Z,4.13
2022-09-27T11:37:28.680Z,4.40
2022-09-27T11:40:17.114Z,4.35
2022-09-27T11:43:18.477Z,3.30
2022-09-27T11:46:16.795Z,4.22
2022-09-27T11:51:57.256Z,4.25
2022-09-27T11:54:40.585Z,3.90
2022-09-27T11:57:20.768Z,3.78
2022-09-27T12:00:07.136Z,3.83
2022-09-27T12:03:27.317Z,3.70
2022-09-27T12:06:11.968Z,3.40
2022-09-27T12:09:04.587Z,4.20
2022-09-27T12:11:39.996Z,3.95
2022-09-27T12:14:15.373Z,3.92
2022-09-27T12:16:44.952Z,2.95
2022-09-27T12:19:20.778Z,3.72
2022-09-27T12:22:05.842Z,4.40
2022-09-27T12:24:40.467Z,3.85
2022-09-27T12:27:44.587Z,4.15
2022-09-27T12:30:21.407Z,3.20
2022-09-27T12:32:57.979Z,3.67
2022-09-27T12:35:30.709Z,3.25
2022-09-27T12:38:03.066Z,3.58
2022-09-27T12:40:36.027Z,3.60
2022-09-27T12:43:14.018Z,3.40
2022-09-27T12:46:11.166Z,3.13
2022-09-27T12:48:48.441Z,3.40
2022-09-27T12:51:22.192Z,3.70
2022-09-27T12:54:15.056Z,3.78
2022-09-27T12:56:53.355Z,3.25
2022-09-27T12:59:43.854Z,3.83
2022-09-27T13:03:10.956Z,3.45
2022-09-27T13:06:13.513Z,2.92
2022-09-27T13:09:02.014Z,2.85
2022-09-27T13:11:44.329Z,4.05
2022-09-27T13:14:20.163Z,3.88
2022-09-27T13:16:51.460Z,3.47
2022-09-27T13:19:43.094Z,3.75
2022-09-27T13:22:39.337Z,3.33
2022-09-27T13:25:55.889Z,2.90
2022-09-27T13:29:02.233Z,4.00
2022-09-27T13:32:17.674Z,3.25
2022-09-27T13:35:22.092Z,3.70
2022-09-27T13:38:23.745Z,4.03
2022-09-27T13:40:57.016Z,3.72
2022-09-27T13:44:05.239Z,3.35
2022-09-27T13:46:53.471Z,3.40
2022-09-27T13:49:30.352Z,3.35
2022-09-27T13:52:23.237Z,3.45
2022-09-27T13:55:44.591Z,3.55
2022-09-27T13:58:42.115Z,3.05
2022-09-27T14:01:34.600Z,3.77
2022-09-27T14:04:11.463Z,3.15
2022-09-27T14:06:46.911Z,3.55
2022-09-27T14:09:21.783Z,3.58
2022-09-27T14:12:03.874Z,3.20
2022-09-27T14:14:35.811Z,3.50
2022-09-27T14:17:10.104Z,3.55
2022-09-27T14:19:42.248Z,3.15
2022-09-27T14:22:16.578Z,3.72
2022-09-27T14:25:20.113Z,3.60
2022-09-27T14:27:52.972Z,3.85
2022-09-27T14:30:32.396Z,3.72
2022-09-27T14:33:32.308Z,3.40
2022-09-27T14:36:44.618Z,3.50
2022-09-27T14:41:52.109Z,3.28
2022-09-27T14:44:27.341Z,3.50
2022-09-27T14:47:16.403Z,2.90
2022-09-27T14:49:49.452Z,3.13
2022-09-27T14:52:24.284Z,3.38
2022-09-27T14:55:01.182Z,2.95
2022-09-27T14:57:34.077Z,3.45
2022-09-27T15:00:15.752Z,2.90
2022-09-27T15:02:46.400Z,3.85
2022-09-27T15:05:17.798Z,2.95
2022-09-27T15:10:18.337Z,3.45
2022-09-27T15:15:23.773Z,3.70
2022-09-27T15:17:54.905Z,2.88
2022-09-27T15:20:32.196Z,3.15
2022-09-27T15:23:05.201Z,3.17
2022-09-27T15:25:36.761Z,3.08
2022-09-27T15:28:08.680Z,3.13
2022-09-27T15:30:39.666Z,3.00
2022-09-27T15:33:21.647Z,2.90
2022-09-27T15:35:52.840Z,3.25
2022-09-27T15:38:28.752Z,3.22
2022-09-27T15:41:13.090Z,3.30
2022-09-27T15:43:47.604Z,3.38
2022-09-27T15:46:34.204Z,3.00
2022-09-27T15:49:27.748Z,3.33
2022-09-27T15:51:57.980Z,3.20
2022-09-27T15:54:30.199Z,2.85
2022-09-27T15:57:04.576Z,3.55
2022-09-27T15:59:36.105Z,3.50
2022-09-27T16:04:38.920Z,3.78
2022-09-27T16:07:09.279Z,3.08
2022-09-27T16:09:38.710Z,3.13
2022-09-27T16:12:07.781Z,4.25
2022-09-27T16:14:36.870Z,2.70
2022-09-27T16:17:05.847Z,3.38
2022-09-27T16:19:34.872Z,3.63
2022-09-27T16:22:09.305Z,3.83
2022-09-27T16:24:38.287Z,2.72
2022-09-27T16:27:07.262Z,2.95
2022-09-27T16:29:36.267Z,3.00
2022-09-27T16:32:07.130Z,3.38
2022-09-27T16:34:36.290Z,2.83
2022-09-27T16:37:07.583Z,2.92
2022-09-27T16:39:36.590Z,2.63
2022-09-27T16:42:07.808Z,3.00
2022-09-27T16:44:36.923Z,2.63
2022-09-27T16:47:07.473Z,2.38
2022-09-27T16:49:54.178Z,3.20
2022-09-27T16:52:24.570Z,2.67
2022-09-27T16:54:53.559Z,3.85
2022-09-27T16:57:22.560Z,3.10
2022-09-27T16:59:51.785Z,3.22
2022-09-27T17:02:20.817Z,3.97
2022-09-27T17:04:49.821Z,3.35
2022-09-27T17:07:18.925Z,3.75
2022-09-27T17:09:49.359Z,3.30
2022-09-27T17:12:18.365Z,3.43
2022-09-27T17:14:47.393Z,3.40
2022-09-27T17:17:16.473Z,3.60
2022-09-27T17:19:45.498Z,3.70
2022-09-27T17:22:14.475Z,3.58
2022-09-27T17:24:43.474Z,3.63
2022-09-27T17:27:13.879Z,3.58
2022-09-27T17:29:42.872Z,2.58
2022-09-27T17:32:13.693Z,3.28
2022-09-27T17:34:43.703Z,3.25
2022-09-27T17:37:13.088Z,4.10
2022-09-27T17:39:42.095Z,4.20
2022-09-27T17:42:11.892Z,3.97
2022-09-27T17:44:44.682Z,4.13
2022-09-27T17:47:31.091Z,3.95
2022-09-27T17:50:17.231Z,3.67
2022-09-27T17:52:46.232Z,3.65
2022-09-27T17:55:15.767Z,4.05
2022-09-27T17:57:44.925Z,3.50
2022-09-27T18:00:15.613Z,3.95
2022-09-27T18:02:46.193Z,3.22
2022-09-27T18:05:15.469Z,3.42
2022-09-27T18:07:46.975Z,3.25
2022-09-27T18:10:16.818Z,3.95
2022-09-27T18:12:45.897Z,3.83
2022-09-27T18:15:23.178Z,3.70
2022-09-27T18:17:57.837Z,3.72
2022-09-27T18:20:27.114Z,3.55
2022-09-27T18:22:56.583Z,3.63
2022-09-27T18:25:25.646Z,3.47
2022-09-27T18:27:56.184Z,4.30
2022-09-27T18:30:26.614Z,4.22
2022-09-27T18:32:55.638Z,3.70
2022-09-27T18:35:24.909Z,4.45
2022-09-27T18:37:54.511Z,4.90
2022-09-27T18:40:38.359Z,5.70
2022-09-27T18:43:12.672Z,4.72
2022-09-27T18:45:43.073Z,5.80
2022-09-27T18:48:12.011Z,4.63
2022-09-27T18:50:41.024Z,5.88
2022-09-27T18:53:10.080Z,5.15
2022-09-27T18:55:39.994Z,4.50
2022-09-27T18:58:14.151Z,4.18
2022-09-27T19:00:45.042Z,4.60
2022-09-27T19:03:16.491Z,5.32
2022-09-27T19:08:14.396Z,4.88
2022-09-27T19:10:43.486Z,5.07
2022-09-27T19:13:12.607Z,4.78
2022-09-27T19:15:41.978Z,5.07
2022-09-27T19:18:12.473Z,4.55
2022-09-27T19:20:41.678Z,4.50
2022-09-27T19:23:10.916Z,4.47
2022-09-27T19:25:40.666Z,5.28
2022-09-27T19:28:12.098Z,5.25
2022-09-27T19:30:42.490Z,4.82
2022-09-27T19:33:13.209Z,4.85
2022-09-27T19:35:42.317Z,4.35
2022-09-27T19:38:11.457Z,4.68
2022-09-27T19:40:40.617Z,5.30
2022-09-27T19:43:09.721Z,4.20
2022-09-27T19:45:39.421Z,4.00
2022-09-27T19:48:08.907Z,4.65
2022-09-27T19:50:39.683Z,5.72
2022-09-27T19:53:08.861Z,5.00
2022-09-27T19:55:37.888Z,5.00
2022-09-27T19:58:07.074Z,4.25
2022-09-27T20:00:36.150Z,4.55
2022-09-27T20:03:05.618Z,4.40
2022-09-27T20:05:34.772Z,5.07
2022-09-27T20:08:05.380Z,3.92
2022-09-27T20:10:34.507Z,4.57
2022-09-27T20:13:29.986Z,4.82
2022-09-27T20:19:22.903Z,3.70
2022-09-27T20:22:12.236Z,3.72
2022-09-27T20:24:45.652Z,3.75
2022-09-27T20:27:14.776Z,3.40
2022-09-27T20:29:53.876Z,3.00
2022-09-27T20:32:27.658Z,3.25
2022-09-27T20:34:59.913Z,3.95
2022-09-27T20:37:28.914Z,3.40
2022-09-27T20:40:07.766Z,3.15
2022-09-27T20:42:36.877Z,2.95
2022-09-27T20:45:06.512Z,2.72
2022-09-27T20:47:35.585Z,3.00
2022-09-27T20:50:04.854Z,3.03
2022-09-27T20:52:34.084Z,2.58
2022-09-27T20:55:04.551Z,3.35
2022-09-27T20:57:53.473Z,3.20
2022-09-27T21:00:22.771Z,3.00
2022-09-27T21:02:51.880Z,3.13
2022-09-27T21:05:21.016Z,3.60
2022-09-27T21:07:54.513Z,3.20
2022-09-27T21:10:24.944Z,3.70
2022-09-27T21:12:53.961Z,2.90
2022-09-27T21:15:23.037Z,2.58
2022-09-27T21:17:52.845Z,3.00
2022-09-27T21:20:21.836Z,3.70
2022-09-27T21:22:50.926Z,3.25
2022-09-27T21:25:21.146Z,3.28
2022-09-27T21:28:00.575Z,3.63
2022-09-27T21:30:30.300Z,3.13
2022-09-27T21:33:01.448Z,2.85
2022-09-27T21:35:30.438Z,3.38
2022-09-27T21:37:59.336Z,2.50
2022-09-27T21:40:28.777Z,3.10
2022-09-27T21:42:59.048Z,2.40
2022-09-27T21:45:28.014Z,2.92
2022-09-27T21:47:57.092Z,2.67
2022-09-27T21:50:26.055Z,3.60
2022-09-27T21:52:58.011Z,2.97
2022-09-27T21:55:28.951Z,3.53
2022-09-27T21:57:59.277Z,2.42
2022-09-27T22:00:28.295Z,2.88
2022-09-27T22:02:58.536Z,2.78
2022-09-27T22:05:28.720Z,3.15
2022-09-27T22:07:57.679Z,2.67
2022-09-27T22:10:26.623Z,3.15
2022-09-27T22:12:55.589Z,2.85
2022-09-27T22:15:25.925Z,3.08
2022-09-27T22:17:54.954Z,2.60
2022-09-27T22:20:23.943Z,2.50
2022-09-27T22:22:52.942Z,2.38
2022-09-27T22:25:21.917Z,2.22
2022-09-27T22:27:51.210Z,2.65
2022-09-27T22:30:20.309Z,3.15
2022-09-27T22:32:50.649Z,2.97
2022-09-27T22:35:20.246Z,2.45
2022-09-27T22:37:49.538Z,2.58
2022-09-27T22:40:18.711Z,2.95
2022-09-27T22:42:48.152Z,3.13
2022-09-27T22:45:18.382Z,2.63
2022-09-27T22:47:47.426Z,2.47
2022-09-27T22:50:17.848Z,2.60
2022-09-27T22:52:46.846Z,2.97
2022-09-27T22:55:15.912Z,2.60
2022-09-27T22:57:44.877Z,2.83
2022-09-27T23:00:15.038Z,3.20
2022-09-27T23:02:44.076Z,2.83
2022-09-27T23:05:13.149Z,3.08
2022-09-27T23:07:43.600Z,2.47
2022-09-27T23:10:12.968Z,2.73
2022-09-27T23:12:41.965Z,2.42
2022-09-27T23:15:11.409Z,2.50
2022-09-27T23:17:40.380Z,2.45
2022-09-27T23:20:10.053Z,2.67
2022-09-27T23:22:39.144Z,2.40
2022-09-27T23:25:10.935Z,2.17
2022-09-27T23:27:46.286Z,2.83
2022-09-27T23:30:16.387Z,2.35
2022-09-27T23:32:45.970Z,2.40
2022-09-27T23:35:15.461Z,2.70
2022-09-27T23:37:44.448Z,3.13
2022-09-27T23:40:15.148Z,3.03
2022-09-27T23:42:44.165Z,2.92
2022-09-27T23:45:14.259Z,3.20
2022-09-27T23:47:43.255Z,2.80
2022-09-27T23:50:12.224Z,2.90
2022-09-27T23:52:41.199Z,3.42
2022-09-27T23:55:11.649Z,3.10
2022-09-27T23:57:42.290Z,3.53
